Time;durP1;ratioP1;P1;durP2;ratioP2;P2;SDS_P1;SDS_P2;PMS_P1;PMS_P2;Temp;Humidity;BMP_temperature;BMP_pressure;BME280_temperature;BME280_humidity;BME280_pressure;Samples;Min_cycle;Max_cycle;Signal;HPM_P1;HPM_P2
2021/05/19 00:00:33;;;;;;;1.10;0.98;;;;;;;;;;10363304;28;20079;-61
2021/05/19 00:05:31;;;;;;;0.95;0.82;;;;;;;;;;10362770;28;20076;-60
2021/05/19 00:10:29;;;;;;;2.25;1.05;;;;;;;;;;10362746;28;20040;-61
2021/05/19 00:15:27;;;;;;;4.47;1.20;;;;;;;;;;10361875;28;20084;-58
2021/05/19 00:20:25;;;;;;;2.15;1.10;;;;;;;;;;10361931;28;20079;-59
2021/05/19 00:25:23;;;;;;;1.77;1.00;;;;;;;;;;10361482;28;20075;-60
2021/05/19 00:30:22;;;;;;;1.00;1.00;;;;;;;;;;10362258;28;20074;-60
2021/05/19 00:35:19;;;;;;;1.45;1.10;;;;;;;;;;10359761;28;20055;-60
2021/05/19 00:40:18;;;;;;;1.60;1.00;;;;;;;;;;10361032;28;20095;-61
2021/05/19 00:45:16;;;;;;;0.85;0.77;;;;;;;;;;10360135;28;20090;-62
2021/05/19 00:50:18;;;;;;;2.83;1.52;;;;;;;;;;10323325;28;20071;-60
2021/05/19 00:55:16;;;;;;;1.10;1.00;;;;;;;;;;10344454;28;20552;-59
2021/05/19 01:00:17;;;;;;;5.72;0.90;;;;;;;;;;10356674;28;20079;-61
2021/05/19 01:05:38;;;;;;;1.17;0.98;;;;;;;;;;10359353;28;20052;-59
2021/05/19 01:10:44;;;;;;;2.72;1.40;;;;;;;;;;10357355;28;20064;-60
2021/05/19 01:15:43;;;;;;;0.98;0.90;;;;;;;;;;10359015;28;20075;-60
2021/05/19 01:20:41;;;;;;;1.05;0.95;;;;;;;;;;10358856;28;20102;-60
2021/05/19 01:25:40;;;;;;;1.10;1.00;;;;;;;;;;10358904;28;20079;-59
2021/05/19 01:30:38;;;;;;;3.70;1.20;;;;;;;;;;10356867;28;20067;-60
2021/05/19 01:35:36;;;;;;;1.77;1.10;;;;;;;;;;10358278;28;20075;-61
2021/05/19 01:40:35;;;;;;;1.55;1.13;;;;;;;;;;10359182;28;20095;-60
2021/05/19 01:45:38;;;;;;;1.38;1.27;;;;;;;;;;10358572;28;20425;-60
2021/05/19 01:50:36;;;;;;;3.33;2.00;;;;;;;;;;10358040;28;20055;-61
2021/05/19 01:55:34;;;;;;;3.63;1.80;;;;;;;;;;10358933;28;20047;-60
2021/05/19 02:00:32;;;;;;;4.38;1.75;;;;;;;;;;10358045;28;20079;-60
2021/05/19 02:05:32;;;;;;;2.08;1.48;;;;;;;;;;10355743;28;20048;-60
2021/05/19 02:10:30;;;;;;;4.20;1.58;;;;;;;;;;10355727;28;20099;-60
2021/05/19 02:15:29;;;;;;;2.28;1.65;;;;;;;;;;10357697;28;20091;-60
2021/05/19 02:20:28;;;;;;;2.53;1.50;;;;;;;;;;10355689;28;20083;-60
2021/05/19 02:25:29;;;;;;;7.30;1.48;;;;;;;;;;10352116;28;20078;-60
2021/05/19 02:30:27;;;;;;;1.50;1.40;;;;;;;;;;10354855;28;20055;-60
2021/05/19 02:35:25;;;;;;;2.17;1.50;;;;;;;;;;10354223;28;20075;-60
2021/05/19 02:40:33;;;;;;;1.83;1.48;;;;;;;;;;10297421;28;20092;-60
2021/05/19 02:45:31;;;;;;;1.98;1.15;;;;;;;;;;10316512;28;20505;-60
2021/05/19 02:50:29;;;;;;;2.08;1.58;;;;;;;;;;10315796;28;20076;-60
2021/05/19 02:55:27;;;;;;;1.85;1.20;;;;;;;;;;10315262;28;20084;-60
2021/05/19 03:00:26;;;;;;;1.65;1.20;;;;;;;;;;10317550;28;20075;-60
2021/05/19 03:05:24;;;;;;;1.90;1.42;;;;;;;;;;10348991;28;20040;-59
2021/05/19 03:10:21;;;;;;;1.70;1.40;;;;;;;;;;10355380;28;20149;-61
2021/05/19 03:15:20;;;;;;;2.08;1.40;;;;;;;;;;10355073;28;20080;-60
2021/05/19 03:20:19;;;;;;;4.35;1.85;;;;;;;;;;10354330;28;20083;-60
2021/05/19 03:25:16;;;;;;;2.25;1.30;;;;;;;;;;10354901;28;20075;-60
2021/05/19 03:30:15;;;;;;;2.13;1.30;;;;;;;;;;10361529;28;20080;-61
2021/05/19 03:35:13;;;;;;;3.85;1.67;;;;;;;;;;10362284;28;20083;-61
2021/05/19 03:40:14;;;;;;;2.60;1.42;;;;;;;;;;10363479;28;20056;-61
2021/05/19 03:45:14;;;;;;;2.60;1.60;;;;;;;;;;10343929;28;20102;-59
2021/05/19 03:50:12;;;;;;;2.05;1.50;;;;;;;;;;10360770;28;20493;-58
2021/05/19 03:55:11;;;;;;;3.75;1.63;;;;;;;;;;10360059;28;20501;-59
2021/05/19 04:00:11;;;;;;;1.95;1.52;;;;;;;;;;10362213;28;20075;-58
2021/05/19 04:05:10;;;;;;;2.15;1.88;;;;;;;;;;10363288;28;20059;-58
2021/05/19 04:10:08;;;;;;;2.33;1.20;;;;;;;;;;10363332;28;20040;-59
2021/05/19 04:15:07;;;;;;;6.20;1.80;;;;;;;;;;10361006;28;20068;-58
2021/05/19 04:20:06;;;;;;;1.80;1.50;;;;;;;;;;10363056;28;20075;-59
2021/05/19 04:25:04;;;;;;;4.13;1.90;;;;;;;;;;10362523;28;20409;-60
2021/05/19 04:30:03;;;;;;;7.25;2.65;;;;;;;;;;10362641;28;20044;-58
2021/05/19 04:35:03;;;;;;;2.92;1.70;;;;;;;;;;10362385;28;20051;-60
2021/05/19 04:40:03;;;;;;;1.77;1.45;;;;;;;;;;10360430;28;20091;-60
2021/05/19 04:45:01;;;;;;;2.80;2.38;;;;;;;;;;10361400;28;20040;-61
2021/05/19 04:49:59;;;;;;;4.18;1.73;;;;;;;;;;10359076;28;20076;-60
2021/05/19 04:54:59;;;;;;;2.03;1.40;;;;;;;;;;10359143;28;20047;-61
2021/05/19 04:59:58;;;;;;;8.15;2.47;;;;;;;;;;10359134;28;20076;-61
2021/05/19 05:04:56;;;;;;;2.10;1.88;;;;;;;;;;10360986;28;20114;-60
2021/05/19 05:09:56;;;;;;;5.82;2.38;;;;;;;;;;10361159;28;20040;-60
2021/05/19 05:14:54;;;;;;;7.38;1.83;;;;;;;;;;10360537;28;20047;-60
2021/05/19 05:19:52;;;;;;;3.30;1.20;;;;;;;;;;10360773;28;20071;-60
2021/05/19 05:24:50;;;;;;;4.32;1.40;;;;;;;;;;10360603;28;20051;-60
2021/05/19 05:29:48;;;;;;;5.70;2.20;;;;;;;;;;10359469;28;20086;-60
2021/05/19 05:34:46;;;;;;;2.63;1.50;;;;;;;;;;10360439;28;20413;-60
2021/05/19 05:39:45;;;;;;;5.53;1.50;;;;;;;;;;10359641;28;20161;-60
2021/05/19 05:44:43;;;;;;;1.80;1.42;;;;;;;;;;10359430;28;20059;-59
2021/05/19 05:49:41;;;;;;;1.50;1.33;;;;;;;;;;10359153;28;20051;-60
2021/05/19 05:54:39;;;;;;;3.65;1.60;;;;;;;;;;10359223;28;20110;-59
2021/05/19 05:59:38;;;;;;;1.30;1.20;;;;;;;;;;10358911;28;20086;-62
2021/05/19 06:04:36;;;;;;;2.15;1.30;;;;;;;;;;10358483;28;20084;-59
2021/05/19 06:09:34;;;;;;;1.27;1.17;;;;;;;;;;10357018;28;20051;-59
2021/05/19 06:14:32;;;;;;;2.55;1.45;;;;;;;;;;10358419;28;20086;-59
2021/05/19 06:19:30;;;;;;;1.45;1.27;;;;;;;;;;10358467;28;20068;-59
2021/05/19 06:24:29;;;;;;;2.78;1.23;;;;;;;;;;10357870;28;20044;-59
2021/05/19 06:29:26;;;;;;;2.58;1.10;;;;;;;;;;10358360;28;20063;-60
2021/05/19 06:34:24;;;;;;;5.05;1.35;;;;;;;;;;10358275;28;20044;-59
2021/05/19 06:39:23;;;;;;;1.73;1.20;;;;;;;;;;10357633;28;20079;-59
2021/05/19 06:44:21;;;;;;;1.98;1.65;;;;;;;;;;10357612;28;20044;-62
2021/05/19 06:49:19;;;;;;;4.22;1.85;;;;;;;;;;10357486;28;20075;-59
2021/05/19 06:54:17;;;;;;;7.18;1.70;;;;;;;;;;10357745;28;20493;-60
2021/05/19 06:59:17;;;;;;;2.30;1.35;;;;;;;;;;10356724;28;20075;-60
2021/05/19 07:04:17;;;;;;;3.85;1.55;;;;;;;;;;10365642;28;20055;-61
2021/05/19 07:09:15;;;;;;;5.78;1.45;;;;;;;;;;10365959;28;20040;-60
2021/05/19 07:14:16;;;;;;;3.40;1.10;;;;;;;;;;10363986;28;20547;-60
2021/05/19 07:19:15;;;;;;;1.35;1.10;;;;;;;;;;10365183;28;20072;-61
2021/05/19 07:24:13;;;;;;;1.58;1.33;;;;;;;;;;10365254;28;20075;-61
2021/05/19 07:29:11;;;;;;;3.00;1.42;;;;;;;;;;10362975;28;20063;-61
2021/05/19 07:34:09;;;;;;;4.97;2.28;;;;;;;;;;10364693;28;20048;-61
2021/05/19 07:39:08;;;;;;;2.10;1.52;;;;;;;;;;10364385;28;20071;-61
2021/05/19 07:44:06;;;;;;;2.90;1.67;;;;;;;;;;10364888;28;20086;-61
2021/05/19 07:49:04;;;;;;;9.65;1.48;;;;;;;;;;10362968;28;20055;-61
2021/05/19 07:54:03;;;;;;;3.20;1.80;;;;;;;;;;10363768;28;20076;-61
2021/05/19 07:59:04;;;;;;;6.72;3.88;;;;;;;;;;10363594;28;20075;-61
2021/05/19 08:04:00;;;;;;;4.28;1.77;;;;;;;;;;10362583;28;20044;-61
2021/05/19 08:08:57;;;;;;;1.55;1.25;;;;;;;;;;10363075;28;20516;-61
2021/05/19 08:13:53;;;;;;;4.97;3.50;;;;;;;;;;10362824;28;20047;-60
2021/05/19 08:18:51;;;;;;;3.50;1.95;;;;;;;;;;10363026;28;20083;-61
2021/05/19 08:23:49;;;;;;;5.70;3.25;;;;;;;;;;10362713;28;20489;-61
2021/05/19 08:28:47;;;;;;;1.50;1.10;;;;;;;;;;10362106;28;20087;-61
2021/05/19 08:33:45;;;;;;;3.38;1.45;;;;;;;;;;10362220;28;20036;-60
2021/05/19 08:38:44;;;;;;;1.92;1.60;;;;;;;;;;10361981;28;20076;-61
2021/05/19 08:43:43;;;;;;;1.98;1.83;;;;;;;;;;10361761;28;20055;-61
2021/05/19 08:48:51;;;;;;;6.53;2.88;;;;;;;;;;10361651;28;20086;-60
2021/05/19 08:53:50;;;;;;;2.20;1.75;;;;;;;;;;10361186;28;20063;-60
2021/05/19 08:58:48;;;;;;;3.20;1.58;;;;;;;;;;10361163;28;20504;-67
2021/05/19 09:03:46;;;;;;;2.00;1.80;;;;;;;;;;10360817;28;20509;-67
2021/05/19 09:08:43;;;;;;;3.42;1.15;;;;;;;;;;10361171;28;20480;-67
2021/05/19 09:13:45;;;;;;;4.03;2.00;;;;;;;;;;10360481;28;20051;-66
2021/05/19 09:18:47;;;;;;;3.40;2.67;;;;;;;;;;10358215;28;20048;-66
2021/05/19 09:23:47;;;;;;;2.53;1.45;;;;;;;;;;10359277;28;20048;-66
2021/05/19 09:28:45;;;;;;;2.90;1.10;;;;;;;;;;10360101;28;20048;-66
2021/05/19 09:33:43;;;;;;;6.78;1.38;;;;;;;;;;10360098;28;20071;-68
2021/05/19 09:38:42;;;;;;;5.97;2.13;;;;;;;;;;10359640;28;20048;-66
2021/05/19 09:43:39;;;;;;;6.03;1.80;;;;;;;;;;10359846;28;20068;-66
2021/05/19 09:48:38;;;;;;;2.40;1.00;;;;;;;;;;10359012;28;20083;-66
2021/05/19 09:53:36;;;;;;;2.33;1.42;;;;;;;;;;10358890;28;20044;-66
2021/05/19 09:58:36;;;;;;;2.30;1.45;;;;;;;;;;10358120;28;20044;-67
2021/05/19 10:03:36;;;;;;;2.53;1.80;;;;;;;;;;10358989;28;20079;-65
2021/05/19 10:08:34;;;;;;;2.28;1.05;;;;;;;;;;10357078;28;20415;-66
2021/05/19 10:13:34;;;;;;;2.47;1.52;;;;;;;;;;10358095;28;20051;-66
2021/05/19 10:18:35;;;;;;;4.13;2.80;;;;;;;;;;10357752;28;20051;-66
2021/05/19 10:23:37;;;;;;;1.65;1.23;;;;;;;;;;10356725;28;20044;-69
2021/05/19 10:28:40;;;;;;;2.95;1.65;;;;;;;;;;10357722;28;20044;-66
2021/05/19 10:33:45;;;;;;;2.22;1.33;;;;;;;;;;10357628;28;20064;-66
2021/05/19 10:38:46;;;;;;;2.78;1.75;;;;;;;;;;10357821;28;20040;-67
2021/05/19 10:43:48;;;;;;;2.22;1.58;;;;;;;;;;10357324;28;20084;-67
2021/05/19 10:48:51;;;;;;;2.30;1.45;;;;;;;;;;10356461;28;20055;-67
2021/05/19 10:59:15;;;;;;;2.07;1.70;;;;;;;;;;10357834;28;20065;-67
2021/05/19 11:04:14;;;;;;;1.80;1.13;;;;;;;;;;10357808;28;20488;-67
2021/05/19 11:09:25;;;;;;;5.40;2.53;;;;;;;;;;10357393;28;20080;-67
2021/05/19 11:14:32;;;;;;;2.35;1.73;;;;;;;;;;10357689;28;20072;-67
2021/05/19 11:19:31;;;;;;;2.15;0.85;;;;;;;;;;10357482;28;20083;-67
2021/05/19 11:24:30;;;;;;;3.55;1.95;;;;;;;;;;10356795;28;20504;-67
2021/05/19 11:29:34;;;;;;;2.72;1.55;;;;;;;;;;10356853;28;20048;-66
2021/05/19 11:34:32;;;;;;;2.58;1.33;;;;;;;;;;10357124;28;20064;-65
2021/05/19 11:39:33;;;;;;;2.72;1.60;;;;;;;;;;10357050;28;20074;-66
2021/05/19 11:44:55;;;;;;;2.95;0.93;;;;;;;;;;10316114;28;20053;-66
2021/05/19 11:50:22;;;;;;;3.28;0.95;;;;;;;;;;10322135;28;20044;-65
2021/05/19 11:55:24;;;;;;;2.10;1.65;;;;;;;;;;10287215;28;20084;-67
2021/05/19 12:00:29;;;;;;;1.52;1.27;;;;;;;;;;10322845;28;20080;-66
2021/05/19 12:05:39;;;;;;;3.95;1.55;;;;;;;;;;10322971;28;20481;-67
2021/05/19 12:10:36;;;;;;;5.60;1.40;;;;;;;;;;10322740;28;20045;-67
2021/05/19 12:15:36;;;;;;;4.60;1.52;;;;;;;;;;10322524;28;20041;-67
2021/05/19 12:20:35;;;;;;;4.10;1.20;;;;;;;;;;10322108;28;20489;-67
2021/05/19 12:25:33;;;;;;;4.97;1.33;;;;;;;;;;10322028;28;20041;-66
2021/05/19 12:30:42;;;;;;;2.33;1.88;;;;;;;;;;10322075;28;20075;-67
2021/05/19 12:35:45;;;;;;;2.92;1.88;;;;;;;;;;10321244;28;20520;-66
2021/05/19 12:40:44;;;;;;;1.08;0.95;;;;;;;;;;10330432;28;20539;-66
2021/05/19 12:45:43;;;;;;;1.48;1.38;;;;;;;;;;10361441;28;20044;-67
2021/05/19 12:50:43;;;;;;;3.38;1.98;;;;;;;;;;10361477;28;20048;-67
2021/05/19 12:55:41;;;;;;;6.03;2.03;;;;;;;;;;10361803;28;20036;-66
2021/05/19 13:00:56;;;;;;;2.38;1.30;;;;;;;;;;10360143;28;20094;-66
2021/05/19 13:05:59;;;;;;;2.55;1.00;;;;;;;;;;10361130;28;20047;-66
2021/05/19 13:10:57;;;;;;;1.75;1.63;;;;;;;;;;10360613;28;20044;-66
2021/05/19 13:15:57;;;;;;;3.75;1.13;;;;;;;;;;10360433;28;20058;-66
2021/05/19 13:21:00;;;;;;;1.15;0.95;;;;;;;;;;10359876;28;20504;-67
2021/05/19 13:26:05;;;;;;;2.80;1.25;;;;;;;;;;10359624;28;20242;-66
2021/05/19 13:31:03;;;;;;;1.52;1.00;;;;;;;;;;10359459;28;20059;-67
2021/05/19 13:36:27;;;;;;;2.50;0.90;;;;;;;;;;10359599;28;20044;-67
2021/05/19 13:41:26;;;;;;;3.95;1.65;;;;;;;;;;10359245;28;20083;-67
2021/05/19 13:46:24;;;;;;;2.05;1.00;;;;;;;;;;10358582;28;20086;-66
2021/05/19 13:51:22;;;;;;;12.60;1.50;;;;;;;;;;10359461;28;20036;-66
2021/05/19 13:56:20;;;;;;;1.45;1.08;;;;;;;;;;10358764;28;20047;-66
2021/05/19 14:01:18;;;;;;;3.67;2.42;;;;;;;;;;10358521;28;20091;-67
2021/05/19 14:06:17;;;;;;;4.45;1.50;;;;;;;;;;10358665;28;20047;-66
2021/05/19 14:11:17;;;;;;;7.10;1.80;;;;;;;;;;10357557;28;20044;-66
2021/05/19 14:16:34;;;;;;;6.47;2.35;;;;;;;;;;10357707;28;20055;-67
2021/05/19 14:27:07;;;;;;;2.25;1.65;;;;;;;;;;10280060;28;20080;-67
2021/05/19 14:32:07;;;;;;;9.30;1.63;;;;;;;;;;10356295;28;20040;-67
2021/05/19 15:03:34;;;;;;;4.43;3.80;;;;;;;;;;10357609;28;20459;-67
2021/05/19 15:08:33;;;;;;;2.45;1.45;;;;;;;;;;10357320;28;20409;-67
2021/05/19 15:13:31;;;;;;;2.78;0.95;;;;;;;;;;10356553;28;20051;-67
2021/05/19 15:18:29;;;;;;;7.93;3.70;;;;;;;;;;10357348;28;20044;-67
2021/05/19 15:23:27;;;;;;;1.67;0.93;;;;;;;;;;10361463;28;20082;-67
2021/05/19 15:28:25;;;;;;;4.45;1.40;;;;;;;;;;10364058;28;20076;-67
2021/05/19 15:33:24;;;;;;;4.28;1.77;;;;;;;;;;10364938;28;20078;-67
2021/05/19 15:38:21;;;;;;;1.73;1.52;;;;;;;;;;10364209;28;20071;-67
2021/05/19 15:43:21;;;;;;;1.50;1.35;;;;;;;;;;10363875;28;20086;-67
2021/05/19 15:48:20;;;;;;;3.33;1.95;;;;;;;;;;10364033;28;20051;-67
2021/05/19 15:53:18;;;;;;;2.88;2.10;;;;;;;;;;10363571;28;20048;-67
2021/05/19 15:58:16;;;;;;;1.65;1.55;;;;;;;;;;10363730;28;20039;-67
2021/05/19 16:03:14;;;;;;;8.63;2.60;;;;;;;;;;10363151;28;20524;-67
2021/05/19 16:08:13;;;;;;;6.88;2.10;;;;;;;;;;10363321;28;20048;-67
2021/05/19 16:13:10;;;;;;;1.92;1.70;;;;;;;;;;10362995;28;20044;-67
2021/05/19 16:18:08;;;;;;;2.88;1.52;;;;;;;;;;10363030;28;20044;-66
2021/05/19 16:23:06;;;;;;;3.75;2.58;;;;;;;;;;10362462;28;20500;-66
2021/05/19 16:28:05;;;;;;;6.93;3.33;;;;;;;;;;10362557;28;20079;-66
2021/05/19 16:39:05;;;;;;;8.43;4.82;;;;;;;;;;10353929;28;20492;-66
2021/05/19 16:44:04;;;;;;;8.07;4.85;;;;;;;;;;10361506;28;20087;-66
2021/05/19 16:49:05;;;;;;;4.10;2.65;;;;;;;;;;10361978;28;20408;-67
2021/05/19 16:54:04;;;;;;;3.10;1.50;;;;;;;;;;10361304;28;20523;-66
2021/05/19 16:59:02;;;;;;;6.30;2.20;;;;;;;;;;10361596;28;20044;-67
2021/05/19 17:09:17;;;;;;;5.57;1.90;;;;;;;;;;10361510;28;20036;-66
2021/05/19 17:14:15;;;;;;;5.07;1.98;;;;;;;;;;10360727;28;20040;-66
2021/05/19 17:19:14;;;;;;;9.40;2.75;;;;;;;;;;10360351;28;20083;-66
2021/05/19 17:24:12;;;;;;;12.98;2.90;;;;;;;;;;10345389;28;20083;-66
2021/05/19 17:29:10;;;;;;;5.68;2.65;;;;;;;;;;10345421;28;20544;-66
2021/05/19 17:34:11;;;;;;;5.80;2.42;;;;;;;;;;10318022;28;20453;-65
2021/05/19 17:39:10;;;;;;;4.38;1.85;;;;;;;;;;10327452;28;20086;-65
2021/05/19 17:44:07;;;;;;;7.13;2.15;;;;;;;;;;10346251;28;20083;-66
2021/05/19 17:49:08;;;;;;;5.30;3.20;;;;;;;;;;10348556;28;20079;-65
2021/05/19 17:54:07;;;;;;;7.13;2.90;;;;;;;;;;10356034;28;20047;-65
2021/05/19 17:59:06;;;;;;;4.72;1.90;;;;;;;;;;10340926;28;20067;-66
2021/05/19 18:04:04;;;;;;;8.10;2.88;;;;;;;;;;10340974;28;21353;-65
2021/05/19 18:09:03;;;;;;;8.30;2.78;;;;;;;;;;10349132;28;20457;-66
2021/05/19 18:14:02;;;;;;;10.95;2.45;;;;;;;;;;10356282;28;20086;-66
2021/05/19 18:19:02;;;;;;;4.40;2.60;;;;;;;;;;10346858;28;20489;-67
2021/05/19 18:24:00;;;;;;;6.28;2.40;;;;;;;;;;10358094;28;20079;-66
2021/05/19 18:29:01;;;;;;;5.70;1.92;;;;;;;;;;10353555;28;20118;-65
2021/05/19 18:34:05;;;;;;;1.42;1.30;;;;;;;;;;10349867;28;20060;-65
2021/05/19 18:39:04;;;;;;;2.42;1.30;;;;;;;;;;10353826;28;20048;-66
2021/05/19 18:44:02;;;;;;;4.53;1.52;;;;;;;;;;10351888;28;20076;-66
2021/05/19 18:49:00;;;;;;;3.33;1.38;;;;;;;;;;10354228;28;20091;-66
2021/05/19 18:53:58;;;;;;;2.85;1.20;;;;;;;;;;10369152;28;20078;-66
2021/05/19 18:58:57;;;;;;;5.43;1.20;;;;;;;;;;10352788;28;20424;-68
2021/05/19 19:03:56;;;;;;;4.32;1.08;;;;;;;;;;10363919;28;20087;-67
2021/05/19 19:08:54;;;;;;;1.95;1.35;;;;;;;;;;10361484;28;20500;-66
2021/05/19 19:13:52;;;;;;;1.30;1.13;;;;;;;;;;10361864;28;20412;-66
2021/05/19 19:18:51;;;;;;;1.80;1.50;;;;;;;;;;10361683;28;20071;-65
2021/05/19 19:23:49;;;;;;;6.68;1.70;;;;;;;;;;10362223;28;20072;-66
2021/05/19 19:28:50;;;;;;;2.63;1.15;;;;;;;;;;10357594;28;20151;-65
2021/05/19 19:33:48;;;;;;;2.00;1.20;;;;;;;;;;10360064;28;20087;-66
2021/05/19 19:38:47;;;;;;;3.72;1.25;;;;;;;;;;10357441;28;20068;-67
2021/05/19 19:43:45;;;;;;;2.50;1.35;;;;;;;;;;10361613;28;20082;-66
2021/05/19 19:48:46;;;;;;;2.95;1.33;;;;;;;;;;10361068;28;20083;-66
2021/05/19 19:53:44;;;;;;;4.82;2.05;;;;;;;;;;10361206;28;20083;-66
2021/05/19 19:58:42;;;;;;;7.15;1.70;;;;;;;;;;10362166;28;20048;-66
2021/05/19 20:03:43;;;;;;;8.48;1.85;;;;;;;;;;10359547;28;20520;-67
2021/05/19 20:08:41;;;;;;;4.38;1.40;;;;;;;;;;10356907;28;20577;-67
2021/05/19 20:13:45;;;;;;;1.35;1.13;;;;;;;;;;10362784;28;20047;-67
2021/05/19 20:18:44;;;;;;;4.07;1.17;;;;;;;;;;10360332;28;20082;-67
2021/05/19 20:23:42;;;;;;;2.35;1.50;;;;;;;;;;10358294;28;20612;-66
2021/05/19 20:28:40;;;;;;;2.83;1.40;;;;;;;;;;10354677;28;20048;-66
2021/05/19 20:33:38;;;;;;;5.07;1.10;;;;;;;;;;10362337;28;20083;-66
2021/05/19 20:38:36;;;;;;;3.10;1.88;;;;;;;;;;10362258;28;20620;-65
2021/05/19 20:43:34;;;;;;;3.28;1.60;;;;;;;;;;10360728;28;20527;-67
2021/05/19 20:48:32;;;;;;;1.23;1.08;;;;;;;;;;10360778;28;20424;-67
2021/05/19 20:53:30;;;;;;;2.75;1.33;;;;;;;;;;10360353;28;20079;-66
2021/05/19 20:58:29;;;;;;;2.20;1.70;;;;;;;;;;10361295;28;20075;-67
2021/05/19 21:03:27;;;;;;;1.90;1.42;;;;;;;;;;10360452;28;20079;-67
2021/05/19 21:08:25;;;;;;;1.85;1.40;;;;;;;;;;10359896;28;20043;-66
2021/05/19 21:13:23;;;;;;;3.53;1.17;;;;;;;;;;10359965;28;20106;-67
2021/05/19 21:18:22;;;;;;;2.13;1.38;;;;;;;;;;10359793;28;20043;-68
2021/05/19 21:23:20;;;;;;;5.13;1.55;;;;;;;;;;10360337;28;20516;-67
2021/05/19 21:28:18;;;;;;;2.53;1.67;;;;;;;;;;10359875;28;20080;-67
2021/05/19 21:33:16;;;;;;;3.75;1.60;;;;;;;;;;10359777;28;20075;-67
2021/05/19 21:38:14;;;;;;;6.55;2.22;;;;;;;;;;10359687;28;20489;-67
2021/05/19 21:43:12;;;;;;;1.88;1.30;;;;;;;;;;10358424;28;20134;-67
2021/05/19 21:48:10;;;;;;;2.20;1.63;;;;;;;;;;10359085;28;20036;-67
2021/05/19 21:53:08;;;;;;;2.33;1.70;;;;;;;;;;10357951;28;20059;-67
2021/05/19 21:58:07;;;;;;;3.95;2.08;;;;;;;;;;10358773;28;20405;-67
2021/05/19 22:03:05;;;;;;;5.85;1.83;;;;;;;;;;10358468;28;20087;-67
2021/05/19 22:08:03;;;;;;;2.97;2.05;;;;;;;;;;10357668;28;20079;-67
2021/05/19 22:13:01;;;;;;;3.78;2.95;;;;;;;;;;10358378;28;20043;-67
2021/05/19 22:18:06;;;;;;;3.47;1.90;;;;;;;;;;10357491;28;20044;-67
2021/05/19 22:23:26;;;;;;;;;;;;;;;;;;10357501;28;20087;-67
2021/05/19 22:28:24;;;;;;;2.42;1.60;;;;;;;;;;10339441;28;19943;-66
2021/05/19 22:33:23;;;;;;;3.25;2.35;;;;;;;;;;10356931;28;20052;-67
2021/05/19 22:38:21;;;;;;;1.40;1.30;;;;;;;;;;10356388;28;20044;-65
2021/05/19 22:43:19;;;;;;;6.03;1.52;;;;;;;;;;10357611;28;20508;-65
2021/05/19 22:48:17;;;;;;;4.55;1.48;;;;;;;;;;10357359;28;20508;-65
2021/05/19 22:53:16;;;;;;;2.67;1.20;;;;;;;;;;10355825;28;20047;-65
2021/05/19 22:58:13;;;;;;;3.13;1.33;;;;;;;;;;10356155;28;20048;-66
2021/05/19 23:03:11;;;;;;;2.22;1.23;;;;;;;;;;10356006;28;20509;-66
2021/05/19 23:08:09;;;;;;;2.80;1.02;;;;;;;;;;10356872;28;20040;-65
2021/05/19 23:13:08;;;;;;;2.92;1.60;;;;;;;;;;10357675;28;20075;-66
2021/05/19 23:18:06;;;;;;;1.92;1.10;;;;;;;;;;10356322;28;20082;-66
2021/05/19 23:23:04;;;;;;;6.60;1.50;;;;;;;;;;10356074;28;20088;-65
2021/05/19 23:28:02;;;;;;;4.03;1.77;;;;;;;;;;10355691;28;20072;-66
2021/05/19 23:33:01;;;;;;;2.38;1.35;;;;;;;;;;10356277;28;20048;-66
2021/05/19 23:37:59;;;;;;;2.97;1.23;;;;;;;;;;10355541;28;20059;-65
2021/05/19 23:42:57;;;;;;;4.72;1.20;;;;;;;;;;10357670;28;20099;-66
2021/05/19 23:47:55;;;;;;;2.10;1.40;;;;;;;;;;10363780;28;20047;-66
2021/05/19 23:52:55;;;;;;;2.40;1.20;;;;;;;;;;10362947;28;20083;-65
2021/05/19 23:57:54;;;;;;;4.20;1.30;;;;;;;;;;10363616;28;20043;-66
